<?xml version="1.0" encoding="ISO-8859-1"?>
<gpx version="1.1" 
creator="Memory-Map 5.1.3.716 http://www.memory-map.com"
 xmlns:xsi="http://www.w3.org/2001/XMLSchema-instance"
 xmlns="http://www.topografix.com/GPX/1/1"
 xsi:schemaLocation="http://www.topografix.com/GPX/1/1 http://www.topografix.com/GPX/1/1/gpx.xsd">
<trk>
<name><![CDATA[ACTIVE LOG]]></name>
<type><![CDATA[Track]]></type>
<trkseg>
<trkpt lat="52.9384589442" lon="1.0213208203"><ele>49</ele><time>2010-09-19T07:58:07Z</time></trkpt>
<trkpt lat="52.9384804018" lon="1.0213422780"><ele>50</ele><time>2010-09-19T07:59:20Z</time></trkpt>
<trkpt lat="52.9384804018" lon="1.0213422780"><ele>50</ele><time>2010-09-19T07:59:41Z</time></trkpt>
<trkpt lat="52.9384589442" lon="1.0213637357"><ele>50</ele><time>2010-09-19T07:59:45Z</time></trkpt>
<trkpt lat="52.9383945712" lon="1.0215568547"><ele>50</ele><time>2010-09-19T08:00:00Z</time></trkpt>
<trkpt lat="52.9382872828" lon="1.0221576695"><ele>51</ele><time>2010-09-19T08:00:31Z</time></trkpt>
<trkpt lat="52.9380512484" lon="1.0230159764"><ele>50</ele><time>2010-09-19T08:01:13Z</time></trkpt>
<trkpt lat="52.9380512484" lon="1.0230803494"><ele>50</ele><time>2010-09-19T08:01:16Z</time></trkpt>
<trkpt lat="52.9380727061" lon="1.0231661801"><ele>50</ele><time>2010-09-19T08:01:21Z</time></trkpt>
<trkpt lat="52.9381370791" lon="1.0236811643"><ele>49</ele><time>2010-09-19T08:01:47Z</time></trkpt>
<trkpt lat="52.9381799944" lon="1.0238313680"><ele>48</ele><time>2010-09-19T08:01:58Z</time></trkpt>
<trkpt lat="52.9381799944" lon="1.0239386563"><ele>48</ele><time>2010-09-19T08:02:04Z</time></trkpt>
<trkpt lat="52.9380083331" lon="1.0241746907"><ele>47</ele><time>2010-09-19T08:02:28Z</time></trkpt>
<trkpt lat="52.9379654177" lon="1.0244536405"><ele>47</ele><time>2010-09-19T08:02:41Z</time></trkpt>
<trkpt lat="52.9378366717" lon="1.0249042516"><ele>45</ele><time>2010-09-19T08:03:04Z</time></trkpt>
<trkpt lat="52.9377079257" lon="1.0258054738"><ele>45</ele><time>2010-09-19T08:03:46Z</time></trkpt>
<trkpt lat="52.9376220950" lon="1.0266208653"><ele>46</ele><time>2010-09-19T08:04:28Z</time></trkpt>
<trkpt lat="52.9375791796" lon="1.0272860532"><ele>46</ele><time>2010-09-19T08:04:59Z</time></trkpt>
<trkpt lat="52.9375791796" lon="1.0273718839"><ele>46</ele><time>2010-09-19T08:05:04Z</time></trkpt>
<trkpt lat="52.9373646029" lon="1.0276508336"><ele>45</ele><time>2010-09-19T08:05:24Z</time></trkpt>
<trkpt lat="52.9373431452" lon="1.0276937490"><ele>45</ele><time>2010-09-19T08:05:28Z</time></trkpt>
<trkpt lat="52.9372787722" lon="1.0276937490"><ele>45</ele><time>2010-09-19T08:05:33Z</time></trkpt>
<trkpt lat="52.9371071108" lon="1.0276508336"><ele>43</ele><time>2010-09-19T08:05:55Z</time></trkpt>
<trkpt lat="52.9369569071" lon="1.0276722913"><ele>44</ele><time>2010-09-19T08:06:27Z</time></trkpt>
<trkpt lat="52.9366994151" lon="1.0274577146"><ele>40</ele><time>2010-09-19T08:06:55Z</time></trkpt>
<trkpt lat="52.9364848383" lon="1.0272431378"><ele>36</ele><time>2010-09-19T08:07:14Z</time></trkpt>
<trkpt lat="52.9361844309" lon="1.0270071034"><ele>32</ele><time>2010-09-19T08:07:40Z</time></trkpt>
<trkpt lat="52.9362273463" lon="1.0268783574"><ele>31</ele><time>2010-09-19T08:07:47Z</time></trkpt>
<trkpt lat="52.9363990077" lon="1.0261702542"><ele>30</ele><time>2010-09-19T08:08:17Z</time></trkpt>
<trkpt lat="52.9367637881" lon="1.0249257092"><ele>30</ele><time>2010-09-19T08:09:12Z</time></trkpt>
<trkpt lat="52.9369783648" lon="1.0243248944"><ele>31</ele><time>2010-09-19T08:09:42Z</time></trkpt>
<trkpt lat="52.9368710764" lon="1.0242605214"><ele>30</ele><time>2010-09-19T08:09:51Z</time></trkpt>
<trkpt lat="52.9361415156" lon="1.0240244870"><ele>31</ele><time>2010-09-19T08:10:43Z</time></trkpt>
<trkpt lat="52.9354334124" lon="1.0238957410"><ele>35</ele><time>2010-09-19T08:11:33Z</time></trkpt>
<trkpt lat="52.9347467669" lon="1.0237240796"><ele>36</ele><time>2010-09-19T08:12:23Z</time></trkpt>
<trkpt lat="52.9339742907" lon="1.0235524182"><ele>38</ele><time>2010-09-19T08:13:19Z</time></trkpt>
<trkpt lat="52.9333949336" lon="1.0235953336"><ele>40</ele><time>2010-09-19T08:14:01Z</time></trkpt>
<trkpt lat="52.9329657801" lon="1.0235309606"><ele>40</ele><time>2010-09-19T08:14:35Z</time></trkpt>
<trkpt lat="52.9324937113" lon="1.0234665875"><ele>42</ele><time>2010-09-19T08:15:10Z</time></trkpt>
<trkpt lat="52.9324078806" lon="1.0234665875"><ele>42</ele><time>2010-09-19T08:15:16Z</time></trkpt>
<trkpt lat="52.9323220499" lon="1.0229516034"><ele>43</ele><time>2010-09-19T08:15:41Z</time></trkpt>
<trkpt lat="52.9323005923" lon="1.0227370267"><ele>43</ele><time>2010-09-19T08:15:52Z</time></trkpt>
<trkpt lat="52.9322576769" lon="1.0226511960"><ele>44</ele><time>2010-09-19T08:15:58Z</time></trkpt>
<trkpt lat="52.9319143542" lon="1.0226297383"><ele>45</ele><time>2010-09-19T08:16:25Z</time></trkpt>
<trkpt lat="52.9312062510" lon="1.0226297383"><ele>47</ele><time>2010-09-19T08:17:18Z</time></trkpt>
<trkpt lat="52.9308200129" lon="1.0226726537"><ele>46</ele><time>2010-09-19T08:17:46Z</time></trkpt>
<trkpt lat="52.9307985552" lon="1.0233163838"><ele>45</ele><time>2010-09-19T08:18:14Z</time></trkpt>
<trkpt lat="52.9307985552" lon="1.0246896749"><ele>42</ele><time>2010-09-19T08:19:13Z</time></trkpt>
<trkpt lat="52.9307556399" lon="1.0256552701"><ele>40</ele><time>2010-09-19T08:19:55Z</time></trkpt>
<trkpt lat="52.9307556399" lon="1.0265994077"><ele>38</ele><time>2010-09-19T08:20:40Z</time></trkpt>
<trkpt lat="52.9307770976" lon="1.0269212728"><ele>36</ele><time>2010-09-19T08:20:57Z</time></trkpt>
<trkpt lat="52.9307985552" lon="1.0279726987"><ele>32</ele><time>2010-09-19T08:21:43Z</time></trkpt>
<trkpt lat="52.9308200129" lon="1.0290670400"><ele>28</ele><time>2010-09-19T08:22:29Z</time></trkpt>
<trkpt lat="52.9308629282" lon="1.0305690770"><ele>26</ele><time>2010-09-19T08:23:33Z</time></trkpt>
<trkpt lat="52.9309487589" lon="1.0310196881"><ele>27</ele><time>2010-09-19T08:23:54Z</time></trkpt>
<trkpt lat="52.9308414706" lon="1.0311055188"><ele>24</ele><time>2010-09-19T08:24:05Z</time></trkpt>
<trkpt lat="52.9302835711" lon="1.0312771802"><ele>23</ele><time>2010-09-19T08:24:49Z</time></trkpt>
<trkpt lat="52.9298115023" lon="1.0314917569"><ele>27</ele><time>2010-09-19T08:25:29Z</time></trkpt>
<trkpt lat="52.9292536028" lon="1.0318350797"><ele>29</ele><time>2010-09-19T08:26:16Z</time></trkpt>
<trkpt lat="52.9291892298" lon="1.0318350797"><ele>29</ele><time>2010-09-19T08:26:22Z</time></trkpt>
<trkpt lat="52.9284811266" lon="1.0313844686"><ele>32</ele><time>2010-09-19T08:27:18Z</time></trkpt>
<trkpt lat="52.9281592616" lon="1.0309767728"><ele>33</ele><time>2010-09-19T08:27:51Z</time></trkpt>
<trkpt lat="52.9277515658" lon="1.0299253469"><ele>35</ele><time>2010-09-19T08:28:48Z</time></trkpt>
<trkpt lat="52.9273867854" lon="1.0289382939"><ele>38</ele><time>2010-09-19T08:29:44Z</time></trkpt>
<trkpt lat="52.9271722086" lon="1.0283374791"><ele>38</ele><time>2010-09-19T08:30:19Z</time></trkpt>
<trkpt lat="52.9268074282" lon="1.0273933415"><ele>36</ele><time>2010-09-19T08:31:15Z</time></trkpt>
<trkpt lat="52.9265070208" lon="1.0264921193"><ele>37</ele><time>2010-09-19T08:32:07Z</time></trkpt>
<trkpt lat="52.9262924441" lon="1.0259556775"><ele>40</ele><time>2010-09-19T08:32:36Z</time></trkpt>
<trkpt lat="52.9259062060" lon="1.0251402860"><ele>46</ele><time>2010-09-19T08:33:24Z</time></trkpt>
<trkpt lat="52.9254770525" lon="1.0246467595"><ele>49</ele><time>2010-09-19T08:34:04Z</time></trkpt>
<trkpt lat="52.9249406107" lon="1.0245609288"><ele>50</ele><time>2010-09-19T08:34:42Z</time></trkpt>
<trkpt lat="52.9243612536" lon="1.0245823865"><ele>50</ele><time>2010-09-19T08:35:21Z</time></trkpt>
<trkpt lat="52.9238462695" lon="1.0246467595"><ele>49</ele><time>2010-09-19T08:35:59Z</time></trkpt>
<trkpt lat="52.9238033541" lon="1.0247325902"><ele>50</ele><time>2010-09-19T08:36:04Z</time></trkpt>
<trkpt lat="52.9237389811" lon="1.0255050664"><ele>48</ele><time>2010-09-19T08:36:39Z</time></trkpt>
<trkpt lat="52.9236316927" lon="1.0264492040"><ele>46</ele><time>2010-09-19T08:37:22Z</time></trkpt>
<trkpt lat="52.9235887774" lon="1.0273075109"><ele>42</ele><time>2010-09-19T08:37:59Z</time></trkpt>
<trkpt lat="52.9236746081" lon="1.0285305982"><ele>43</ele><time>2010-09-19T08:38:55Z</time></trkpt>
<trkpt lat="52.9236960658" lon="1.0290241246"><ele>44</ele><time>2010-09-19T08:39:18Z</time></trkpt>
<trkpt lat="52.9236960658" lon="1.0297107701"><ele>46</ele><time>2010-09-19T08:40:01Z</time></trkpt>
<trkpt lat="52.9233956583" lon="1.0299468045"><ele>48</ele><time>2010-09-19T08:40:42Z</time></trkpt>
<trkpt lat="52.9231596239" lon="1.0300755506"><ele>49</ele><time>2010-09-19T08:41:07Z</time></trkpt>
<trkpt lat="52.9228163012" lon="1.0302686696"><ele>50</ele><time>2010-09-19T08:41:34Z</time></trkpt>
<trkpt lat="52.9224944361" lon="1.0303115850"><ele>52</ele><time>2010-09-19T08:41:56Z</time></trkpt>
<trkpt lat="52.9221725710" lon="1.0305690770"><ele>53</ele><time>2010-09-19T08:42:22Z</time></trkpt>
<trkpt lat="52.9217219599" lon="1.0309123998"><ele>53</ele><time>2010-09-19T08:42:56Z</time></trkpt>
<trkpt lat="52.9212069758" lon="1.0312771802"><ele>55</ele><time>2010-09-19T08:43:41Z</time></trkpt>
<trkpt lat="52.9207349070" lon="1.0315990453"><ele>55</ele><time>2010-09-19T08:44:19Z</time></trkpt>
<trkpt lat="52.9203486689" lon="1.0318565373"><ele>57</ele><time>2010-09-19T08:44:52Z</time></trkpt>
<trkpt lat="52.9198336848" lon="1.0322856908"><ele>58</ele><time>2010-09-19T08:45:34Z</time></trkpt>
<trkpt lat="52.9193830737" lon="1.0326075559"><ele>56</ele><time>2010-09-19T08:46:11Z</time></trkpt>
<trkpt lat="52.9191041239" lon="1.0328650479"><ele>54</ele><time>2010-09-19T08:46:39Z</time></trkpt>
<trkpt lat="52.9189110049" lon="1.0333585744"><ele>51</ele><time>2010-09-19T08:47:06Z</time></trkpt>
<trkpt lat="52.9187178858" lon="1.0340666776"><ele>48</ele><time>2010-09-19T08:47:41Z</time></trkpt>
<trkpt lat="52.9183745631" lon="1.0350751882"><ele>47</ele><time>2010-09-19T08:48:34Z</time></trkpt>
<trkpt lat="52.9182243594" lon="1.0359334951"><ele>46</ele><time>2010-09-19T08:49:16Z</time></trkpt>
<trkpt lat="52.9183745631" lon="1.0366845136"><ele>44</ele><time>2010-09-19T08:49:50Z</time></trkpt>
<trkpt lat="52.9185247668" lon="1.0374569898"><ele>43</ele><time>2010-09-19T08:50:29Z</time></trkpt>
<trkpt lat="52.9184603938" lon="1.0383367543"><ele>43</ele><time>2010-09-19T08:51:13Z</time></trkpt>
<trkpt lat="52.9184389361" lon="1.0383582120"><ele>41</ele><time>2010-09-19T08:51:31Z</time></trkpt>
<trkpt lat="52.9183531054" lon="1.0387873654"><ele>35</ele><time>2010-09-19T08:53:38Z</time></trkpt>
<trkpt lat="52.9182458170" lon="1.0395598416"><ele>35</ele><time>2010-09-19T08:54:06Z</time></trkpt>
<trkpt lat="52.9181385287" lon="1.0407400136"><ele>33</ele><time>2010-09-19T08:54:40Z</time></trkpt>
<trkpt lat="52.9182672747" lon="1.0421347623"><ele>30</ele><time>2010-09-19T08:55:20Z</time></trkpt>
<trkpt lat="52.9186964281" lon="1.0431218152"><ele>30</ele><time>2010-09-19T08:56:03Z</time></trkpt>
<trkpt lat="52.9192114123" lon="1.0437440877"><ele>31</ele><time>2010-09-19T08:56:45Z</time></trkpt>
<trkpt lat="52.9197907694" lon="1.0440659528"><ele>27</ele><time>2010-09-19T08:57:07Z</time></trkpt>
<trkpt lat="52.9199838885" lon="1.0443663602"><ele>24</ele><time>2010-09-19T08:57:27Z</time></trkpt>
<trkpt lat="52.9200053461" lon="1.0444092755"><ele>23</ele><time>2010-09-19T08:57:37Z</time></trkpt>
<trkpt lat="52.9202199229" lon="1.0442805295"><ele>22</ele><time>2010-09-19T08:57:54Z</time></trkpt>
<trkpt lat="52.9207563647" lon="1.0436367993"><ele>21</ele><time>2010-09-19T08:58:39Z</time></trkpt>
<trkpt lat="52.9212284335" lon="1.0431647306"><ele>20</ele><time>2010-09-19T08:59:17Z</time></trkpt>
<trkpt lat="52.9218077906" lon="1.0426282888"><ele>18</ele><time>2010-09-19T09:00:03Z</time></trkpt>
<trkpt lat="52.9223227747" lon="1.0422420507"><ele>17</ele><time>2010-09-19T09:00:43Z</time></trkpt>
<trkpt lat="52.9230094202" lon="1.0420489316"><ele>16</ele><time>2010-09-19T09:01:35Z</time></trkpt>
<trkpt lat="52.9235673197" lon="1.0418343549"><ele>17</ele><time>2010-09-19T09:02:23Z</time></trkpt>
<trkpt lat="52.9239750155" lon="1.0415983205"><ele>19</ele><time>2010-09-19T09:02:58Z</time></trkpt>
<trkpt lat="52.9240179308" lon="1.0418343549"><ele>17</ele><time>2010-09-19T09:03:09Z</time></trkpt>
<trkpt lat="52.9241037615" lon="1.0427570348"><ele>16</ele><time>2010-09-19T09:03:51Z</time></trkpt>
<trkpt lat="52.9242539652" lon="1.0436153417"><ele>16</ele><time>2010-09-19T09:04:26Z</time></trkpt>
<trkpt lat="52.9244470843" lon="1.0446882253"><ele>14</ele><time>2010-09-19T09:05:10Z</time></trkpt>
<trkpt lat="52.9245114573" lon="1.0456323629"><ele>15</ele><time>2010-09-19T09:05:56Z</time></trkpt>
<trkpt lat="52.9246616610" lon="1.0462117200"><ele>18</ele><time>2010-09-19T09:06:30Z</time></trkpt>
<trkpt lat="52.9249191531" lon="1.0463619237"><ele>18</ele><time>2010-09-19T09:07:05Z</time></trkpt>
<trkpt lat="52.9249620684" lon="1.0463404660"><ele>18</ele><time>2010-09-19T09:07:09Z</time></trkpt>
<trkpt lat="52.9253912218" lon="1.0461258893"><ele>18</ele><time>2010-09-19T09:07:50Z</time></trkpt>
<trkpt lat="52.9256057986" lon="1.0460400586"><ele>18</ele><time>2010-09-19T09:08:18Z</time></trkpt>
<trkpt lat="52.9260778674" lon="1.0456538205"><ele>15</ele><time>2010-09-19T09:08:52Z</time></trkpt>
<trkpt lat="52.9266357668" lon="1.0454607015"><ele>13</ele><time>2010-09-19T09:09:32Z</time></trkpt>
<trkpt lat="52.9270434626" lon="1.0452675824"><ele>11</ele><time>2010-09-19T09:10:00Z</time></trkpt>
<trkpt lat="52.9273438700" lon="1.0450100904"><ele>12</ele><time>2010-09-19T09:10:28Z</time></trkpt>
<trkpt lat="52.9274940737" lon="1.0447096830"><ele>12</ele><time>2010-09-19T09:10:49Z</time></trkpt>
<trkpt lat="52.9276013621" lon="1.0446667676"><ele>12</ele><time>2010-09-19T09:11:02Z</time></trkpt>
<trkpt lat="52.9279446848" lon="1.0443663602"><ele>12</ele><time>2010-09-19T09:11:32Z</time></trkpt>
<trkpt lat="52.9285669573" lon="1.0439372068"><ele>12</ele><time>2010-09-19T09:12:18Z</time></trkpt>
<trkpt lat="52.9289317378" lon="1.0436582570"><ele>12</ele><time>2010-09-19T09:12:47Z</time></trkpt>
<trkpt lat="52.9295110949" lon="1.0433578496"><ele>11</ele><time>2010-09-19T09:13:29Z</time></trkpt>
<trkpt lat="52.9299187907" lon="1.0431647306"><ele>9</ele><time>2010-09-19T09:14:05Z</time></trkpt>
<trkpt lat="52.9302191981" lon="1.0430359845"><ele>8</ele><time>2010-09-19T09:14:33Z</time></trkpt>
<trkpt lat="52.9307127245" lon="1.0430788999"><ele>9</ele><time>2010-09-19T09:15:11Z</time></trkpt>
<trkpt lat="52.9307770976" lon="1.0429930692"><ele>8</ele><time>2010-09-19T09:15:32Z</time></trkpt>
<trkpt lat="52.9307985552" lon="1.0429501538"><ele>8</ele><time>2010-09-19T09:16:03Z</time></trkpt>
<trkpt lat="52.9308414706" lon="1.0428428655"><ele>7</ele><time>2010-09-19T09:16:11Z</time></trkpt>
<trkpt lat="52.9308629282" lon="1.0427999501"><ele>7</ele><time>2010-09-19T09:16:16Z</time></trkpt>
<trkpt lat="52.9309916743" lon="1.0426712041"><ele>6</ele><time>2010-09-19T09:16:36Z</time></trkpt>
<trkpt lat="52.9309487589" lon="1.0426926618"><ele>4</ele><time>2010-09-19T09:16:56Z</time></trkpt>
<trkpt lat="52.9309702166" lon="1.0426926618"><ele>3</ele><time>2010-09-19T09:17:34Z</time></trkpt>
<trkpt lat="52.9309916743" lon="1.0426926618"><ele>5</ele><time>2010-09-19T09:23:31Z</time></trkpt>
<trkpt lat="52.9309916743" lon="1.0427141194"><ele>5</ele><time>2010-09-19T09:24:59Z</time></trkpt>
<trkpt lat="52.9309916743" lon="1.0427141194"><ele>5</ele><time>2010-09-19T09:25:34Z</time></trkpt>
<trkpt lat="52.9309702166" lon="1.0427355771"><ele>5</ele><time>2010-09-19T09:26:54Z</time></trkpt>
<trkpt lat="52.9308843859" lon="1.0427784925"><ele>5</ele><time>2010-09-19T09:27:18Z</time></trkpt>
<trkpt lat="52.9307770976" lon="1.0428643231"><ele>5</ele><time>2010-09-19T09:27:41Z</time></trkpt>
<trkpt lat="52.9307770976" lon="1.0429286962"><ele>5</ele><time>2010-09-19T09:28:14Z</time></trkpt>
<trkpt lat="52.9307556399" lon="1.0429501538"><ele>5</ele><time>2010-09-19T09:29:15Z</time></trkpt>
<trkpt lat="52.9307556399" lon="1.0430574422"><ele>5</ele><time>2010-09-19T09:30:29Z</time></trkpt>
<trkpt lat="52.9308629282" lon="1.0431432729"><ele>6</ele><time>2010-09-19T09:30:46Z</time></trkpt>
<trkpt lat="52.9309273013" lon="1.0431432729"><ele>6</ele><time>2010-09-19T09:30:52Z</time></trkpt>
<trkpt lat="52.9311847933" lon="1.0431432729"><ele>6</ele><time>2010-09-19T09:31:17Z</time></trkpt>
<trkpt lat="52.9313135394" lon="1.0431432729"><ele>7</ele><time>2010-09-19T09:31:28Z</time></trkpt>
<trkpt lat="52.9313135394" lon="1.0433363919"><ele>8</ele><time>2010-09-19T09:31:40Z</time></trkpt>
<trkpt lat="52.9313564547" lon="1.0438513761"><ele>10</ele><time>2010-09-19T09:32:04Z</time></trkpt>
<trkpt lat="52.9314422854" lon="1.0444307332"><ele>12</ele><time>2010-09-19T09:32:33Z</time></trkpt>
<trkpt lat="52.9318070658" lon="1.0454607015"><ele>17</ele><time>2010-09-19T09:33:29Z</time></trkpt>
<trkpt lat="52.9321503886" lon="1.0464048390"><ele>20</ele><time>2010-09-19T09:34:18Z</time></trkpt>
<trkpt lat="52.9324078806" lon="1.0470700269"><ele>24</ele><time>2010-09-19T09:34:52Z</time></trkpt>
<trkpt lat="52.9326868304" lon="1.0481858258"><ele>25</ele><time>2010-09-19T09:35:43Z</time></trkpt>
<trkpt lat="52.9330301531" lon="1.0496664052"><ele>25</ele><time>2010-09-19T09:36:49Z</time></trkpt>
<trkpt lat="52.9332447298" lon="1.0507607465"><ele>23</ele><time>2010-09-19T09:37:37Z</time></trkpt>
<trkpt lat="52.9333305605" lon="1.0521340375"><ele>25</ele><time>2010-09-19T09:38:37Z</time></trkpt>
<trkpt lat="52.9333949336" lon="1.0533571248"><ele>26</ele><time>2010-09-19T09:39:33Z</time></trkpt>
<trkpt lat="52.9334378489" lon="1.0542368894"><ele>28</ele><time>2010-09-19T09:40:14Z</time></trkpt>
<trkpt lat="52.9336095103" lon="1.0554170613"><ele>31</ele><time>2010-09-19T09:41:09Z</time></trkpt>
<trkpt lat="52.9336095103" lon="1.0561895375"><ele>32</ele><time>2010-09-19T09:41:47Z</time></trkpt>
<trkpt lat="52.9336524256" lon="1.0571765905"><ele>33</ele><time>2010-09-19T09:42:33Z</time></trkpt>
<trkpt lat="52.9336738833" lon="1.0583138471"><ele>34</ele><time>2010-09-19T09:43:25Z</time></trkpt>
<trkpt lat="52.9336524256" lon="1.0592794423"><ele>37</ele><time>2010-09-19T09:44:11Z</time></trkpt>
<trkpt lat="52.9335236796" lon="1.0605239873"><ele>39</ele><time>2010-09-19T09:45:12Z</time></trkpt>
<trkpt lat="52.9334163912" lon="1.0617685323"><ele>42</ele><time>2010-09-19T09:46:13Z</time></trkpt>
<trkpt lat="52.9334163912" lon="1.0626912122"><ele>44</ele><time>2010-09-19T09:46:57Z</time></trkpt>
<trkpt lat="52.9334163912" lon="1.0633778577"><ele>46</ele><time>2010-09-19T09:47:29Z</time></trkpt>
<trkpt lat="52.9334163912" lon="1.0645151143"><ele>50</ele><time>2010-09-19T09:48:26Z</time></trkpt>
<trkpt lat="52.9333520182" lon="1.0655879979"><ele>52</ele><time>2010-09-19T09:49:18Z</time></trkpt>
<trkpt lat="52.9333091029" lon="1.0665750509"><ele>53</ele><time>2010-09-19T09:50:04Z</time></trkpt>
<trkpt lat="52.9333091029" lon="1.0677123075"><ele>53</ele><time>2010-09-19T09:50:56Z</time></trkpt>
<trkpt lat="52.9333520182" lon="1.0688066488"><ele>51</ele><time>2010-09-19T09:51:47Z</time></trkpt>
<trkpt lat="52.9334378489" lon="1.0700511937"><ele>50</ele><time>2010-09-19T09:52:40Z</time></trkpt>
<trkpt lat="52.9335451373" lon="1.0711884504"><ele>49</ele><time>2010-09-19T09:53:30Z</time></trkpt>
<trkpt lat="52.9335022219" lon="1.0721325879"><ele>47</ele><time>2010-09-19T09:54:12Z</time></trkpt>
<trkpt lat="52.9334807642" lon="1.0724973684"><ele>47</ele><time>2010-09-19T09:54:28Z</time></trkpt>
<trkpt lat="52.9335236796" lon="1.0726261144"><ele>47</ele><time>2010-09-19T09:54:34Z</time></trkpt>
<trkpt lat="52.9335451373" lon="1.0738062864"><ele>45</ele><time>2010-09-19T09:55:24Z</time></trkpt>
<trkpt lat="52.9335236796" lon="1.0743856435"><ele>45</ele><time>2010-09-19T09:55:56Z</time></trkpt>
<trkpt lat="52.9335880526" lon="1.0750293737"><ele>43</ele><time>2010-09-19T09:56:26Z</time></trkpt>
<trkpt lat="52.9337167986" lon="1.0762095456"><ele>45</ele><time>2010-09-19T09:57:18Z</time></trkpt>
<trkpt lat="52.9340386637" lon="1.0771322255"><ele>46</ele><time>2010-09-19T09:58:05Z</time></trkpt>
<trkpt lat="52.9346609362" lon="1.0783123975"><ele>45</ele><time>2010-09-19T09:59:11Z</time></trkpt>
<trkpt lat="52.9351759203" lon="1.0790848737"><ele>46</ele><time>2010-09-19T10:00:01Z</time></trkpt>
<trkpt lat="52.9357767352" lon="1.0797286039"><ele>48</ele><time>2010-09-19T10:00:58Z</time></trkpt>
<trkpt lat="52.9365062960" lon="1.0801362996"><ele>49</ele><time>2010-09-19T10:02:06Z</time></trkpt>
<trkpt lat="52.9369569071" lon="1.0801792150"><ele>50</ele><time>2010-09-19T10:02:46Z</time></trkpt>
<trkpt lat="52.9376006373" lon="1.0789346700"><ele>53</ele><time>2010-09-19T10:04:00Z</time></trkpt>
<trkpt lat="52.9379225024" lon="1.0782265668"><ele>54</ele><time>2010-09-19T10:04:38Z</time></trkpt>
<trkpt lat="52.9383301981" lon="1.0774970060"><ele>54</ele><time>2010-09-19T10:05:19Z</time></trkpt>
<trkpt lat="52.9388451823" lon="1.0765528684"><ele>55</ele><time>2010-09-19T10:06:13Z</time></trkpt>
<trkpt lat="52.9392743357" lon="1.0756945615"><ele>55</ele><time>2010-09-19T10:07:01Z</time></trkpt>
<trkpt lat="52.9397034892" lon="1.0749864583"><ele>55</ele><time>2010-09-19T10:07:44Z</time></trkpt>
<trkpt lat="52.9402399310" lon="1.0738706594"><ele>57</ele><time>2010-09-19T10:08:45Z</time></trkpt>
<trkpt lat="52.9404115923" lon="1.0733771329"><ele>57</ele><time>2010-09-19T10:09:10Z</time></trkpt>
<trkpt lat="52.9405617960" lon="1.0733127599"><ele>57</ele><time>2010-09-19T10:09:22Z</time></trkpt>
<trkpt lat="52.9406476267" lon="1.0733556752"><ele>58</ele><time>2010-09-19T10:09:28Z</time></trkpt>
<trkpt lat="52.9407119998" lon="1.0733342176"><ele>58</ele><time>2010-09-19T10:09:34Z</time></trkpt>
<trkpt lat="52.9409480341" lon="1.0731196409"><ele>58</ele><time>2010-09-19T10:09:55Z</time></trkpt>
<trkpt lat="52.9413128146" lon="1.0728621488"><ele>59</ele><time>2010-09-19T10:10:26Z</time></trkpt>
<trkpt lat="52.9416561373" lon="1.0726904874"><ele>57</ele><time>2010-09-19T10:10:53Z</time></trkpt>
<trkpt lat="52.9422998675" lon="1.0721755033"><ele>53</ele><time>2010-09-19T10:11:46Z</time></trkpt>
<trkpt lat="52.9424929865" lon="1.0717678075"><ele>51</ele><time>2010-09-19T10:12:09Z</time></trkpt>
<trkpt lat="52.9427933939" lon="1.0714888578"><ele>50</ele><time>2010-09-19T10:12:35Z</time></trkpt>
<trkpt lat="52.9434371241" lon="1.0708880429"><ele>47</ele><time>2010-09-19T10:13:30Z</time></trkpt>
<trkpt lat="52.9442310580" lon="1.0703516011"><ele>41</ele><time>2010-09-19T10:14:33Z</time></trkpt>
<trkpt lat="52.9447674998" lon="1.0700941091"><ele>37</ele><time>2010-09-19T10:15:11Z</time></trkpt>
<trkpt lat="52.9454112299" lon="1.0699009900"><ele>34</ele><time>2010-09-19T10:15:58Z</time></trkpt>
<trkpt lat="52.9459691294" lon="1.0697722440"><ele>31</ele><time>2010-09-19T10:16:40Z</time></trkpt>
<trkpt lat="52.9466343173" lon="1.0696434980"><ele>27</ele><time>2010-09-19T10:17:30Z</time></trkpt>
<trkpt lat="52.9472565897" lon="1.0696220403"><ele>26</ele><time>2010-09-19T10:18:17Z</time></trkpt>
<trkpt lat="52.9477930316" lon="1.0696220403"><ele>24</ele><time>2010-09-19T10:18:57Z</time></trkpt>
<trkpt lat="52.9484153040" lon="1.0696005826"><ele>20</ele><time>2010-09-19T10:19:43Z</time></trkpt>
<trkpt lat="52.9488015421" lon="1.0697078710"><ele>18</ele><time>2010-09-19T10:20:12Z</time></trkpt>
<trkpt lat="52.9494667300" lon="1.0698151593"><ele>16</ele><time>2010-09-19T10:21:02Z</time></trkpt>
<trkpt lat="52.9500246295" lon="1.0697293287"><ele>15</ele><time>2010-09-19T10:21:46Z</time></trkpt>
<trkpt lat="52.9505396136" lon="1.0694932943"><ele>14</ele><time>2010-09-19T10:22:28Z</time></trkpt>
<trkpt lat="52.9511189707" lon="1.0692787175"><ele>13</ele><time>2010-09-19T10:23:13Z</time></trkpt>
<trkpt lat="52.9518270739" lon="1.0689568525"><ele>11</ele><time>2010-09-19T10:24:08Z</time></trkpt>
<trkpt lat="52.9522991427" lon="1.0685062413"><ele>9</ele><time>2010-09-19T10:24:50Z</time></trkpt>
<trkpt lat="52.9528141268" lon="1.0680770879"><ele>6</ele><time>2010-09-19T10:25:35Z</time></trkpt>
<trkpt lat="52.9530930766" lon="1.0678839689"><ele>5</ele><time>2010-09-19T10:25:59Z</time></trkpt>
<trkpt lat="52.9531145342" lon="1.0682058339"><ele>6</ele><time>2010-09-19T10:26:16Z</time></trkpt>
<trkpt lat="52.9531789073" lon="1.0681843763"><ele>7</ele><time>2010-09-19T10:26:21Z</time></trkpt>
<trkpt lat="52.9535651454" lon="1.0679268842"><ele>8</ele><time>2010-09-19T10:26:54Z</time></trkpt>
<trkpt lat="52.9540157565" lon="1.0676908498"><ele>10</ele><time>2010-09-19T10:27:33Z</time></trkpt>
<trkpt lat="52.9540372141" lon="1.0676908498"><ele>10</ele><time>2010-09-19T10:27:34Z</time></trkpt>
<trkpt lat="52.9540801295" lon="1.0677552228"><ele>10</ele><time>2010-09-19T10:27:39Z</time></trkpt>
<trkpt lat="52.9541874178" lon="1.0680770879"><ele>13</ele><time>2010-09-19T10:28:02Z</time></trkpt>
<trkpt lat="52.9542088755" lon="1.0680985456"><ele>13</ele><time>2010-09-19T10:28:04Z</time></trkpt>
<trkpt lat="52.9544019946" lon="1.0686349874"><ele>14</ele><time>2010-09-19T10:28:34Z</time></trkpt>
<trkpt lat="52.9546594866" lon="1.0695147519"><ele>12</ele><time>2010-09-19T10:29:20Z</time></trkpt>
<trkpt lat="52.9548526057" lon="1.0701370244"><ele>12</ele><time>2010-09-19T10:29:53Z</time></trkpt>
<trkpt lat="52.9550457247" lon="1.0711884504"><ele>12</ele><time>2010-09-19T10:30:43Z</time></trkpt>
<trkpt lat="52.9548526057" lon="1.0720467572"><ele>11</ele><time>2010-09-19T10:31:24Z</time></trkpt>
<trkpt lat="52.9546380290" lon="1.0729694371"><ele>6</ele><time>2010-09-19T10:32:11Z</time></trkpt>
<trkpt lat="52.9544449099" lon="1.0734415059"><ele>6</ele><time>2010-09-19T10:32:38Z</time></trkpt>
<trkpt lat="52.9540372141" lon="1.0741925245"><ele>5</ele><time>2010-09-19T10:33:26Z</time></trkpt>
<trkpt lat="52.9537797221" lon="1.0751152044"><ele>4</ele><time>2010-09-19T10:34:13Z</time></trkpt>
<trkpt lat="52.9535007723" lon="1.0761451726"><ele>4</ele><time>2010-09-19T10:35:04Z</time></trkpt>
<trkpt lat="52.9532647379" lon="1.0771751409"><ele>5</ele><time>2010-09-19T10:35:58Z</time></trkpt>
<trkpt lat="52.9530716189" lon="1.0779690748"><ele>4</ele><time>2010-09-19T10:36:40Z</time></trkpt>
<trkpt lat="52.9529857882" lon="1.0784411435"><ele>3</ele><time>2010-09-19T10:37:04Z</time></trkpt>
<trkpt lat="52.9528999575" lon="1.0789132123"><ele>3</ele><time>2010-09-19T10:37:27Z</time></trkpt>
<trkpt lat="52.9529857882" lon="1.0794711118"><ele>3</ele><time>2010-09-19T10:37:53Z</time></trkpt>
<trkpt lat="52.9531574496" lon="1.0802435880"><ele>4</ele><time>2010-09-19T10:38:32Z</time></trkpt>
<trkpt lat="52.9532003649" lon="1.0803937917"><ele>3</ele><time>2010-09-19T10:38:44Z</time></trkpt>
<trkpt lat="52.9532432803" lon="1.0804152494"><ele>3</ele><time>2010-09-19T10:38:48Z</time></trkpt>
<trkpt lat="52.9532647379" lon="1.0805439954"><ele>3</ele><time>2010-09-19T10:39:05Z</time></trkpt>
<trkpt lat="52.9532861956" lon="1.0805654531"><ele>3</ele><time>2010-09-19T10:39:21Z</time></trkpt>
<trkpt lat="52.9533076533" lon="1.0805439954"><ele>3</ele><time>2010-09-19T10:39:33Z</time></trkpt>
<trkpt lat="52.9535651454" lon="1.0806298261"><ele>2</ele><time>2010-09-19T10:39:55Z</time></trkpt>
<trkpt lat="52.9540372141" lon="1.0808229451"><ele>2</ele><time>2010-09-19T10:40:33Z</time></trkpt>
<trkpt lat="52.9544234522" lon="1.0810160642"><ele>2</ele><time>2010-09-19T10:41:04Z</time></trkpt>
<trkpt lat="52.9547453173" lon="1.0811448102"><ele>2</ele><time>2010-09-19T10:41:29Z</time></trkpt>
<trkpt lat="52.9554105052" lon="1.0814881330"><ele>2</ele><time>2010-09-19T10:42:21Z</time></trkpt>
<trkpt lat="52.9559254893" lon="1.0817241674"><ele>2</ele><time>2010-09-19T10:43:01Z</time></trkpt>
<trkpt lat="52.9561400660" lon="1.0817885404"><ele>1</ele><time>2010-09-19T10:43:20Z</time></trkpt>
<trkpt lat="52.9561400660" lon="1.0818099981"><ele>1</ele><time>2010-09-19T10:43:21Z</time></trkpt>
<trkpt lat="52.9564190157" lon="1.0819602018"><ele>2</ele><time>2010-09-19T10:43:44Z</time></trkpt>
<trkpt lat="52.9570412882" lon="1.0822606092"><ele>3</ele><time>2010-09-19T10:44:32Z</time></trkpt>
<trkpt lat="52.9575991877" lon="1.0825181012"><ele>2</ele><time>2010-09-19T10:45:17Z</time></trkpt>
<trkpt lat="52.9582429179" lon="1.0828185087"><ele>2</ele><time>2010-09-19T10:46:10Z</time></trkpt>
<trkpt lat="52.9585647830" lon="1.0828828817"><ele>2</ele><time>2010-09-19T10:46:38Z</time></trkpt>
<trkpt lat="52.9587793597" lon="1.0828614240"><ele>5</ele><time>2010-09-19T10:47:02Z</time></trkpt>
<trkpt lat="52.9589724787" lon="1.0828185087"><ele>4</ele><time>2010-09-19T10:47:25Z</time></trkpt>
<trkpt lat="52.9592299708" lon="1.0827112203"><ele>2</ele><time>2010-09-19T10:47:47Z</time></trkpt>
<trkpt lat="52.9594874629" lon="1.0823464399"><ele>0</ele><time>2010-09-19T10:48:15Z</time></trkpt>
<trkpt lat="52.9595303782" lon="1.0820245748"><ele>0</ele><time>2010-09-19T10:48:36Z</time></trkpt>
<trkpt lat="52.9595732936" lon="1.0817885404"><ele>0</ele><time>2010-09-19T10:48:51Z</time></trkpt>
<trkpt lat="52.9596591242" lon="1.0814023023"><ele>0</ele><time>2010-09-19T10:49:10Z</time></trkpt>
<trkpt lat="52.9598093279" lon="1.0805654531"><ele>0</ele><time>2010-09-19T10:49:51Z</time></trkpt>
<trkpt lat="52.9599380740" lon="1.0798358922"><ele>0</ele><time>2010-09-19T10:50:27Z</time></trkpt>
<trkpt lat="52.9600668200" lon="1.0790848737"><ele>0</ele><time>2010-09-19T10:51:05Z</time></trkpt>
<trkpt lat="52.9602813967" lon="1.0779905324"><ele>0</ele><time>2010-09-19T10:52:01Z</time></trkpt>
<trkpt lat="52.9604316004" lon="1.0773468023"><ele>0</ele><time>2010-09-19T10:52:34Z</time></trkpt>
<trkpt lat="52.9605603465" lon="1.0765099530"><ele>1</ele><time>2010-09-19T10:53:16Z</time></trkpt>
<trkpt lat="52.9607320078" lon="1.0756516462"><ele>1</ele><time>2010-09-19T10:53:59Z</time></trkpt>
<trkpt lat="52.9609465846" lon="1.0746002202"><ele>1</ele><time>2010-09-19T10:54:51Z</time></trkpt>
<trkpt lat="52.9611182459" lon="1.0738277440"><ele>1</ele><time>2010-09-19T10:55:30Z</time></trkpt>
<trkpt lat="52.9612684496" lon="1.0729694371"><ele>2</ele><time>2010-09-19T10:56:11Z</time></trkpt>
<trkpt lat="52.9614830264" lon="1.0719609266"><ele>2</ele><time>2010-09-19T10:57:04Z</time></trkpt>
<trkpt lat="52.9616546877" lon="1.0711455350"><ele>1</ele><time>2010-09-19T10:57:46Z</time></trkpt>
<trkpt lat="52.9618907221" lon="1.0701155668"><ele>1</ele><time>2010-09-19T10:58:36Z</time></trkpt>
<trkpt lat="52.9620194682" lon="1.0693645482"><ele>1</ele><time>2010-09-19T10:59:13Z</time></trkpt>
<trkpt lat="52.9622125872" lon="1.0684847837"><ele>1</ele><time>2010-09-19T10:59:58Z</time></trkpt>
<trkpt lat="52.9624057063" lon="1.0675621038"><ele>1</ele><time>2010-09-19T11:00:43Z</time></trkpt>
<trkpt lat="52.9625344523" lon="1.0667252546"><ele>1</ele><time>2010-09-19T11:01:23Z</time></trkpt>
<trkpt lat="52.9627275714" lon="1.0657167440"><ele>0</ele><time>2010-09-19T11:02:11Z</time></trkpt>
<trkpt lat="52.9628348597" lon="1.0650730138"><ele>0</ele><time>2010-09-19T11:02:41Z</time></trkpt>
<trkpt lat="52.9630065211" lon="1.0640430455"><ele>0</ele><time>2010-09-19T11:03:30Z</time></trkpt>
<trkpt lat="52.9631781825" lon="1.0631203656"><ele>0</ele><time>2010-09-19T11:04:15Z</time></trkpt>
<trkpt lat="52.9632854708" lon="1.0623693471"><ele>0</ele><time>2010-09-19T11:04:53Z</time></trkpt>
<trkpt lat="52.9634785899" lon="1.0613179212"><ele>0</ele><time>2010-09-19T11:05:45Z</time></trkpt>
<trkpt lat="52.9636502513" lon="1.0604166989"><ele>0</ele><time>2010-09-19T11:06:30Z</time></trkpt>
<trkpt lat="52.9638862856" lon="1.0592150693"><ele>0</ele><time>2010-09-19T11:07:27Z</time></trkpt>
<trkpt lat="52.9640579470" lon="1.0582709317"><ele>0</ele><time>2010-09-19T11:08:12Z</time></trkpt>
<trkpt lat="52.9642725237" lon="1.0571551328"><ele>0</ele><time>2010-09-19T11:09:04Z</time></trkpt>
<trkpt lat="52.9644227275" lon="1.0563182836"><ele>1</ele><time>2010-09-19T11:09:46Z</time></trkpt>
<trkpt lat="52.9645514735" lon="1.0557603841"><ele>2</ele><time>2010-09-19T11:10:14Z</time></trkpt>
<trkpt lat="52.9647875079" lon="1.0546445851"><ele>2</ele><time>2010-09-19T11:11:08Z</time></trkpt>
<trkpt lat="52.9649591693" lon="1.0538291936"><ele>2</ele><time>2010-09-19T11:11:49Z</time></trkpt>
<trkpt lat="52.9651308306" lon="1.0529923444"><ele>1</ele><time>2010-09-19T11:12:29Z</time></trkpt>
<trkpt lat="52.9652810343" lon="1.0520482068"><ele>1</ele><time>2010-09-19T11:13:16Z</time></trkpt>
<trkpt lat="52.9654312380" lon="1.0515546804"><ele>1</ele><time>2010-09-19T11:13:45Z</time></trkpt>
<trkpt lat="52.9656458148" lon="1.0506320005"><ele>1</ele><time>2010-09-19T11:14:32Z</time></trkpt>
<trkpt lat="52.9657531031" lon="1.0501170163"><ele>0</ele><time>2010-09-19T11:14:58Z</time></trkpt>
<trkpt lat="52.9658818492" lon="1.0491728788"><ele>1</ele><time>2010-09-19T11:15:43Z</time></trkpt>
<trkpt lat="52.9659676798" lon="1.0484433179"><ele>2</ele><time>2010-09-19T11:16:20Z</time></trkpt>
<trkpt lat="52.9657960185" lon="1.0480356221"><ele>4</ele><time>2010-09-19T11:16:51Z</time></trkpt>
<trkpt lat="52.9656243571" lon="1.0477995877"><ele>6</ele><time>2010-09-19T11:17:20Z</time></trkpt>
<trkpt lat="52.9656028994" lon="1.0477995877"><ele>6</ele><time>2010-09-19T11:17:23Z</time></trkpt>
<trkpt lat="52.9653668650" lon="1.0476708417"><ele>6</ele><time>2010-09-19T11:17:47Z</time></trkpt>
<trkpt lat="52.9648947962" lon="1.0472202306"><ele>5</ele><time>2010-09-19T11:18:29Z</time></trkpt>
<trkpt lat="52.9643368968" lon="1.0468554502"><ele>4</ele><time>2010-09-19T11:19:18Z</time></trkpt>
<trkpt lat="52.9638433703" lon="1.0464906697"><ele>4</ele><time>2010-09-19T11:20:01Z</time></trkpt>
<trkpt lat="52.9633069285" lon="1.0461258893"><ele>5</ele><time>2010-09-19T11:20:47Z</time></trkpt>
<trkpt lat="52.9627919444" lon="1.0460400586"><ele>4</ele><time>2010-09-19T11:21:30Z</time></trkpt>
<trkpt lat="52.9621482142" lon="1.0464262967"><ele>3</ele><time>2010-09-19T11:22:22Z</time></trkpt>
<trkpt lat="52.9615903147" lon="1.0468339925"><ele>3</ele><time>2010-09-19T11:23:06Z</time></trkpt>
<trkpt lat="52.9610538729" lon="1.0471558576"><ele>4</ele><time>2010-09-19T11:23:51Z</time></trkpt>
<trkpt lat="52.9605174311" lon="1.0473275190"><ele>4</ele><time>2010-09-19T11:24:33Z</time></trkpt>
<trkpt lat="52.9599380740" lon="1.0474777227"><ele>4</ele><time>2010-09-19T11:25:16Z</time></trkpt>
<trkpt lat="52.9593801745" lon="1.0476279264"><ele>4</ele><time>2010-09-19T11:25:57Z</time></trkpt>
<trkpt lat="52.9587793597" lon="1.0477995877"><ele>4</ele><time>2010-09-19T11:26:42Z</time></trkpt>
<trkpt lat="52.9582429179" lon="1.0479712491"><ele>4</ele><time>2010-09-19T11:27:22Z</time></trkpt>
<trkpt lat="52.9577279337" lon="1.0479283338"><ele>4</ele><time>2010-09-19T11:28:04Z</time></trkpt>
<trkpt lat="52.9573846110" lon="1.0473704343"><ele>4</ele><time>2010-09-19T11:28:41Z</time></trkpt>
<trkpt lat="52.9569983729" lon="1.0462760930"><ele>4</ele><time>2010-09-19T11:29:36Z</time></trkpt>
<trkpt lat="52.9566979655" lon="1.0455250745"><ele>4</ele><time>2010-09-19T11:30:17Z</time></trkpt>
<trkpt lat="52.9563546427" lon="1.0445594792"><ele>4</ele><time>2010-09-19T11:31:08Z</time></trkpt>
<trkpt lat="52.9563331851" lon="1.0445165639"><ele>4</ele><time>2010-09-19T11:31:10Z</time></trkpt>
<trkpt lat="52.9559040316" lon="1.0441732411"><ele>4</ele><time>2010-09-19T11:31:46Z</time></trkpt>
<trkpt lat="52.9557538279" lon="1.0440659528"><ele>3</ele><time>2010-09-19T11:31:58Z</time></trkpt>
<trkpt lat="52.9555607089" lon="1.0443234449"><ele>3</ele><time>2010-09-19T11:32:16Z</time></trkpt>
<trkpt lat="52.9555177935" lon="1.0443019872"><ele>4</ele><time>2010-09-19T11:32:20Z</time></trkpt>
<trkpt lat="52.9553032168" lon="1.0439157491"><ele>2</ele><time>2010-09-19T11:32:46Z</time></trkpt>
<trkpt lat="52.9550457247" lon="1.0437655454"><ele>2</ele><time>2010-09-19T11:33:08Z</time></trkpt>
<trkpt lat="52.9548096903" lon="1.0434007650"><ele>3</ele><time>2010-09-19T11:33:40Z</time></trkpt>
<trkpt lat="52.9546809443" lon="1.0431647306"><ele>0</ele><time>2010-09-19T11:34:02Z</time></trkpt>
<trkpt lat="52.9546594866" lon="1.0431432729"><ele>0</ele><time>2010-09-19T11:34:04Z</time></trkpt>
<trkpt lat="52.9545736559" lon="1.0428857808"><ele>1</ele><time>2010-09-19T11:34:24Z</time></trkpt>
<trkpt lat="52.9545307406" lon="1.0429072385"><ele>1</ele><time>2010-09-19T11:34:44Z</time></trkpt>
<trkpt lat="52.9545092829" lon="1.0429072385"><ele>1</ele><time>2010-09-19T11:34:46Z</time></trkpt>
<trkpt lat="52.9542088755" lon="1.0433149343"><ele>1</ele><time>2010-09-19T11:35:17Z</time></trkpt>
<trkpt lat="52.9542088755" lon="1.0434222226"><ele>1</ele><time>2010-09-19T11:35:55Z</time></trkpt>
<trkpt lat="52.9541874178" lon="1.0434865956"><ele>2</ele><time>2010-09-19T11:36:17Z</time></trkpt>
<trkpt lat="52.9537153491" lon="1.0439157491"><ele>2</ele><time>2010-09-19T11:36:59Z</time></trkpt>
<trkpt lat="52.9533076533" lon="1.0442161565"><ele>2</ele><time>2010-09-19T11:37:34Z</time></trkpt>
<trkpt lat="52.9532647379" lon="1.0441088681"><ele>2</ele><time>2010-09-19T11:37:40Z</time></trkpt>
<trkpt lat="52.9532003649" lon="1.0440444951"><ele>2</ele><time>2010-09-19T11:37:46Z</time></trkpt>
<trkpt lat="52.9527282961" lon="1.0444307332"><ele>2</ele><time>2010-09-19T11:38:27Z</time></trkpt>
<trkpt lat="52.9521703967" lon="1.0447955136"><ele>3</ele><time>2010-09-19T11:39:11Z</time></trkpt>
<trkpt lat="52.9518056162" lon="1.0450744634"><ele>4</ele><time>2010-09-19T11:39:40Z</time></trkpt>
<trkpt lat="52.9515266665" lon="1.0454821591"><ele>4</ele><time>2010-09-19T11:40:09Z</time></trkpt>
<trkpt lat="52.9509902247" lon="1.0456967359"><ele>3</ele><time>2010-09-19T11:40:48Z</time></trkpt>
<trkpt lat="52.9500675448" lon="1.0458254819"><ele>3</ele><time>2010-09-19T11:41:55Z</time></trkpt>
<trkpt lat="52.9494881877" lon="1.0461688047"><ele>7</ele><time>2010-09-19T11:42:40Z</time></trkpt>
<trkpt lat="52.9489946612" lon="1.0464477544"><ele>9</ele><time>2010-09-19T11:43:22Z</time></trkpt>
<trkpt lat="52.9483938464" lon="1.0468125348"><ele>11</ele><time>2010-09-19T11:44:14Z</time></trkpt>
<trkpt lat="52.9477072009" lon="1.0473704343"><ele>11</ele><time>2010-09-19T11:45:11Z</time></trkpt>
<trkpt lat="52.9471493014" lon="1.0478425031"><ele>10</ele><time>2010-09-19T11:46:03Z</time></trkpt>
<trkpt lat="52.9470634707" lon="1.0478854184"><ele>10</ele><time>2010-09-19T11:46:10Z</time></trkpt>
<trkpt lat="52.9466128596" lon="1.0475206380"><ele>7</ele><time>2010-09-19T11:46:50Z</time></trkpt>
<trkpt lat="52.9462266215" lon="1.0474777227"><ele>7</ele><time>2010-09-19T11:47:21Z</time></trkpt>
<trkpt lat="52.9461407908" lon="1.0475206380"><ele>6</ele><time>2010-09-19T11:47:28Z</time></trkpt>
<trkpt lat="52.9460978755" lon="1.0476064687"><ele>6</ele><time>2010-09-19T11:47:44Z</time></trkpt>
<trkpt lat="52.9460764178" lon="1.0476064687"><ele>4</ele><time>2010-09-19T11:48:05Z</time></trkpt>
<trkpt lat="52.9460549601" lon="1.0475420957"><ele>4</ele><time>2010-09-19T11:48:19Z</time></trkpt>
<trkpt lat="52.9459905871" lon="1.0473918920"><ele>0</ele><time>2010-09-19T12:10:07Z</time></trkpt>
<trkpt lat="52.9459691294" lon="1.0474133496"><ele>2</ele><time>2010-09-19T12:15:42Z</time></trkpt>
<trkpt lat="52.9459691294" lon="1.0474562650"><ele>2</ele><time>2010-09-19T12:17:26Z</time></trkpt>
<trkpt lat="52.9459691294" lon="1.0474562650"><ele>3</ele><time>2010-09-19T12:18:16Z</time></trkpt>
<trkpt lat="52.9459905871" lon="1.0474348073"><ele>3</ele><time>2010-09-19T12:20:32Z</time></trkpt>
<trkpt lat="52.9460120448" lon="1.0473060613"><ele>4</ele><time>2010-09-19T12:22:25Z</time></trkpt>
<trkpt lat="52.9459262141" lon="1.0472631459"><ele>3</ele><time>2010-09-19T12:22:34Z</time></trkpt>
<trkpt lat="52.9459262141" lon="1.0472631459"><ele>4</ele><time>2010-09-19T12:22:36Z</time></trkpt>
<trkpt lat="52.9458832987" lon="1.0471773152"><ele>3</ele><time>2010-09-19T12:22:43Z</time></trkpt>
<trkpt lat="52.9459476717" lon="1.0467267041"><ele>3</ele><time>2010-09-19T12:23:06Z</time></trkpt>
<trkpt lat="52.9461407908" lon="1.0463619237"><ele>2</ele><time>2010-09-19T12:23:28Z</time></trkpt>
<trkpt lat="52.9465484866" lon="1.0456109052"><ele>3</ele><time>2010-09-19T12:24:14Z</time></trkpt>
<trkpt lat="52.9469561823" lon="1.0450744634"><ele>4</ele><time>2010-09-19T12:24:54Z</time></trkpt>
<trkpt lat="52.9473638781" lon="1.0446667676"><ele>5</ele><time>2010-09-19T12:25:33Z</time></trkpt>
<trkpt lat="52.9474926241" lon="1.0445380216"><ele>5</ele><time>2010-09-19T12:25:46Z</time></trkpt>
<trkpt lat="52.9479432353" lon="1.0443663602"><ele>5</ele><time>2010-09-19T12:26:22Z</time></trkpt>
<trkpt lat="52.9486298808" lon="1.0441517835"><ele>3</ele><time>2010-09-19T12:27:12Z</time></trkpt>
<trkpt lat="52.9490161189" lon="1.0440444951"><ele>3</ele><time>2010-09-19T12:27:43Z</time></trkpt>
<trkpt lat="52.9496598490" lon="1.0440874105"><ele>3</ele><time>2010-09-19T12:28:32Z</time></trkpt>
<trkpt lat="52.9503250369" lon="1.0443019872"><ele>3</ele><time>2010-09-19T12:29:26Z</time></trkpt>
<trkpt lat="52.9506683596" lon="1.0443449025"><ele>3</ele><time>2010-09-19T12:29:56Z</time></trkpt>
<trkpt lat="52.9510545977" lon="1.0440230374"><ele>3</ele><time>2010-09-19T12:30:29Z</time></trkpt>
<trkpt lat="52.9511833437" lon="1.0437655454"><ele>3</ele><time>2010-09-19T12:30:46Z</time></trkpt>
<trkpt lat="52.9519129046" lon="1.0432505612"><ele>2</ele><time>2010-09-19T12:31:50Z</time></trkpt>
<trkpt lat="52.9521918543" lon="1.0430145269"><ele>2</ele><time>2010-09-19T12:32:18Z</time></trkpt>
<trkpt lat="52.9521489390" lon="1.0428214078"><ele>2</ele><time>2010-09-19T12:32:34Z</time></trkpt>
<trkpt lat="52.9522776850" lon="1.0426712041"><ele>2</ele><time>2010-09-19T12:32:49Z</time></trkpt>
<trkpt lat="52.9524922617" lon="1.0424137120"><ele>2</ele><time>2010-09-19T12:33:10Z</time></trkpt>
<trkpt lat="52.9525351771" lon="1.0419416432"><ele>3</ele><time>2010-09-19T12:33:35Z</time></trkpt>
<trkpt lat="52.9526639231" lon="1.0410618787"><ele>4</ele><time>2010-09-19T12:34:18Z</time></trkpt>
<trkpt lat="52.9528570422" lon="1.0402464871"><ele>3</ele><time>2010-09-19T12:35:00Z</time></trkpt>
<trkpt lat="52.9530072459" lon="1.0395598416"><ele>3</ele><time>2010-09-19T12:35:34Z</time></trkpt>
<trkpt lat="52.9530287036" lon="1.0394525533"><ele>3</ele><time>2010-09-19T12:35:39Z</time></trkpt>
<trkpt lat="52.9530716189" lon="1.0394310956"><ele>3</ele><time>2010-09-19T12:35:43Z</time></trkpt>
<trkpt lat="52.9533076533" lon="1.0395383840"><ele>3</ele><time>2010-09-19T12:36:04Z</time></trkpt>
<trkpt lat="52.9538440951" lon="1.0398602490"><ele>3</ele><time>2010-09-19T12:36:50Z</time></trkpt>
<trkpt lat="52.9542947062" lon="1.0401606565"><ele>3</ele><time>2010-09-19T12:37:31Z</time></trkpt>
<trkpt lat="52.9548955210" lon="1.0405683522"><ele>4</ele><time>2010-09-19T12:38:22Z</time></trkpt>
<trkpt lat="52.9552603015" lon="1.0410189633"><ele>4</ele><time>2010-09-19T12:39:00Z</time></trkpt>
<trkpt lat="52.9555821665" lon="1.0415768628"><ele>4</ele><time>2010-09-19T12:39:39Z</time></trkpt>
<trkpt lat="52.9558396586" lon="1.0416841512"><ele>4</ele><time>2010-09-19T12:40:01Z</time></trkpt>
<trkpt lat="52.9562688120" lon="1.0418558126"><ele>4</ele><time>2010-09-19T12:40:39Z</time></trkpt>
<trkpt lat="52.9568910845" lon="1.0421133046"><ele>4</ele><time>2010-09-19T12:41:33Z</time></trkpt>
<trkpt lat="52.9573846110" lon="1.0423278813"><ele>3</ele><time>2010-09-19T12:42:16Z</time></trkpt>
<trkpt lat="52.9577493914" lon="1.0424351697"><ele>4</ele><time>2010-09-19T12:42:48Z</time></trkpt>
<trkpt lat="52.9581570872" lon="1.0425424581"><ele>4</ele><time>2010-09-19T12:43:22Z</time></trkpt>
<trkpt lat="52.9586720713" lon="1.0427784925"><ele>4</ele><time>2010-09-19T12:44:05Z</time></trkpt>
<trkpt lat="52.9589724787" lon="1.0431218152"><ele>4</ele><time>2010-09-19T12:44:36Z</time></trkpt>
<trkpt lat="52.9592514285" lon="1.0435080533"><ele>3</ele><time>2010-09-19T12:45:08Z</time></trkpt>
<trkpt lat="52.9597878703" lon="1.0434651380"><ele>3</ele><time>2010-09-19T12:45:51Z</time></trkpt>
<trkpt lat="52.9602813967" lon="1.0434436803"><ele>4</ele><time>2010-09-19T12:46:33Z</time></trkpt>
<trkpt lat="52.9607963809" lon="1.0432934766"><ele>4</ele><time>2010-09-19T12:47:16Z</time></trkpt>
<trkpt lat="52.9611397036" lon="1.0431218152"><ele>3</ele><time>2010-09-19T12:47:44Z</time></trkpt>
<trkpt lat="52.9616546877" lon="1.0428643231"><ele>2</ele><time>2010-09-19T12:48:26Z</time></trkpt>
<trkpt lat="52.9621267565" lon="1.0427355771"><ele>2</ele><time>2010-09-19T12:49:02Z</time></trkpt>
<trkpt lat="52.9627490290" lon="1.0426282888"><ele>2</ele><time>2010-09-19T12:49:47Z</time></trkpt>
<trkpt lat="52.9631567248" lon="1.0425424581"><ele>2</ele><time>2010-09-19T12:50:18Z</time></trkpt>
<trkpt lat="52.9633069285" lon="1.0421562200"><ele>2</ele><time>2010-09-19T12:50:41Z</time></trkpt>
<trkpt lat="52.9633927592" lon="1.0412120824"><ele>3</ele><time>2010-09-19T12:51:25Z</time></trkpt>
<trkpt lat="52.9636502513" lon="1.0402894025"><ele>3</ele><time>2010-09-19T12:52:14Z</time></trkpt>
<trkpt lat="52.9638433703" lon="1.0397315030"><ele>4</ele><time>2010-09-19T12:52:45Z</time></trkpt>
<trkpt lat="52.9640150317" lon="1.0389375691"><ele>3</ele><time>2010-09-19T12:53:25Z</time></trkpt>
<trkpt lat="52.9641008624" lon="1.0379505162"><ele>3</ele><time>2010-09-19T12:54:13Z</time></trkpt>
<trkpt lat="52.9642296084" lon="1.0372424131"><ele>4</ele><time>2010-09-19T12:54:48Z</time></trkpt>
<trkpt lat="52.9643798121" lon="1.0365128522"><ele>3</ele><time>2010-09-19T12:55:24Z</time></trkpt>
<trkpt lat="52.9646802195" lon="1.0355472570"><ele>4</ele><time>2010-09-19T12:56:15Z</time></trkpt>
<trkpt lat="52.9650020846" lon="1.0347104077"><ele>4</ele><time>2010-09-19T12:57:02Z</time></trkpt>
<trkpt lat="52.9652381190" lon="1.0341310506"><ele>4</ele><time>2010-09-19T12:57:34Z</time></trkpt>
<trkpt lat="52.9655385264" lon="1.0334229474"><ele>4</ele><time>2010-09-19T12:58:14Z</time></trkpt>
<trkpt lat="52.9658174761" lon="1.0325431829"><ele>4</ele><time>2010-09-19T12:58:56Z</time></trkpt>
<trkpt lat="52.9658389338" lon="1.0316419606"><ele>4</ele><time>2010-09-19T12:59:37Z</time></trkpt>
<trkpt lat="52.9656028994" lon="1.0309767728"><ele>4</ele><time>2010-09-19T13:00:13Z</time></trkpt>
<trkpt lat="52.9653239497" lon="1.0301828389"><ele>5</ele><time>2010-09-19T13:00:54Z</time></trkpt>
<trkpt lat="52.9651737460" lon="1.0297966008"><ele>5</ele><time>2010-09-19T13:01:15Z</time></trkpt>
<trkpt lat="52.9649162539" lon="1.0290670400"><ele>4</ele><time>2010-09-19T13:01:53Z</time></trkpt>
<trkpt lat="52.9647231349" lon="1.0284018521"><ele>5</ele><time>2010-09-19T13:02:26Z</time></trkpt>
<trkpt lat="52.9644871005" lon="1.0275864606"><ele>4</ele><time>2010-09-19T13:03:07Z</time></trkpt>
<trkpt lat="52.9642939814" lon="1.0268354421"><ele>5</ele><time>2010-09-19T13:03:45Z</time></trkpt>
<trkpt lat="52.9643154391" lon="1.0262346272"><ele>5</ele><time>2010-09-19T13:04:14Z</time></trkpt>
<trkpt lat="52.9643154391" lon="1.0257411008"><ele>5</ele><time>2010-09-19T13:04:37Z</time></trkpt>
<trkpt lat="52.9641437777" lon="1.0252261167"><ele>5</ele><time>2010-09-19T13:05:04Z</time></trkpt>
<trkpt lat="52.9641223200" lon="1.0246682172"><ele>5</ele><time>2010-09-19T13:05:30Z</time></trkpt>
<trkpt lat="52.9640794047" lon="1.0237455373"><ele>5</ele><time>2010-09-19T13:06:14Z</time></trkpt>
<trkpt lat="52.9640579470" lon="1.0227799420"><ele>6</ele><time>2010-09-19T13:07:00Z</time></trkpt>
<trkpt lat="52.9640364894" lon="1.0223293309"><ele>6</ele><time>2010-09-19T13:07:22Z</time></trkpt>
<trkpt lat="52.9640794047" lon="1.0217070584"><ele>6</ele><time>2010-09-19T13:07:51Z</time></trkpt>
<trkpt lat="52.9641866931" lon="1.0209774976"><ele>6</ele><time>2010-09-19T13:08:32Z</time></trkpt>
<trkpt lat="52.9640794047" lon="1.0210204129"><ele>5</ele><time>2010-09-19T13:08:45Z</time></trkpt>
<trkpt lat="52.9638219126" lon="1.0211062436"><ele>3</ele><time>2010-09-19T13:09:07Z</time></trkpt>
<trkpt lat="52.9633498438" lon="1.0210204129"><ele>3</ele><time>2010-09-19T13:09:46Z</time></trkpt>
<trkpt lat="52.9632640132" lon="1.0210204129"><ele>2</ele><time>2010-09-19T13:09:53Z</time></trkpt>
<trkpt lat="52.9628348597" lon="1.0209560399"><ele>2</ele><time>2010-09-19T13:10:27Z</time></trkpt>
<trkpt lat="52.9622125872" lon="1.0209131246"><ele>3</ele><time>2010-09-19T13:11:19Z</time></trkpt>
<trkpt lat="52.9616117724" lon="1.0206770902"><ele>2</ele><time>2010-09-19T13:12:08Z</time></trkpt>
<trkpt lat="52.9611611613" lon="1.0203766828"><ele>2</ele><time>2010-09-19T13:12:46Z</time></trkpt>
<trkpt lat="52.9606890925" lon="1.0200333600"><ele>4</ele><time>2010-09-19T13:13:27Z</time></trkpt>
<trkpt lat="52.9606890925" lon="1.0200119023"><ele>4</ele><time>2010-09-19T13:13:29Z</time></trkpt>
<trkpt lat="52.9604745158" lon="1.0199904447"><ele>3</ele><time>2010-09-19T13:13:47Z</time></trkpt>
<trkpt lat="52.9604101428" lon="1.0198831563"><ele>3</ele><time>2010-09-19T13:14:01Z</time></trkpt>
<trkpt lat="52.9603886851" lon="1.0198831563"><ele>3</ele><time>2010-09-19T13:14:19Z</time></trkpt>
<trkpt lat="52.9603886851" lon="1.0198831563"><ele>4</ele><time>2010-09-19T13:14:55Z</time></trkpt>
<trkpt lat="52.9604316004" lon="1.0199260716"><ele>3</ele><time>2010-09-19T13:15:18Z</time></trkpt>
<trkpt lat="52.9603886851" lon="1.0199689870"><ele>3</ele><time>2010-09-19T13:15:23Z</time></trkpt>
<trkpt lat="52.9600453623" lon="1.0198616986"><ele>3</ele><time>2010-09-19T13:15:47Z</time></trkpt>
<trkpt lat="52.9594874629" lon="1.0198831563"><ele>3</ele><time>2010-09-19T13:16:23Z</time></trkpt>
<trkpt lat="52.9586506137" lon="1.0199689870"><ele>3</ele><time>2010-09-19T13:17:18Z</time></trkpt>
<trkpt lat="52.9580068835" lon="1.0200548177"><ele>3</ele><time>2010-09-19T13:17:56Z</time></trkpt>
<trkpt lat="52.9572987803" lon="1.0199046140"><ele>4</ele><time>2010-09-19T13:18:44Z</time></trkpt>
<trkpt lat="52.9566335925" lon="1.0197114949"><ele>4</ele><time>2010-09-19T13:19:29Z</time></trkpt>
<trkpt lat="52.9565477618" lon="1.0197114949"><ele>4</ele><time>2010-09-19T13:19:35Z</time></trkpt>
<trkpt lat="52.9565263041" lon="1.0196042066"><ele>4</ele><time>2010-09-19T13:19:40Z</time></trkpt>
<trkpt lat="52.9564619311" lon="1.0191321378"><ele>4</ele><time>2010-09-19T13:20:02Z</time></trkpt>
<trkpt lat="52.9562902697" lon="1.0187888150"><ele>4</ele><time>2010-09-19T13:20:23Z</time></trkpt>
<trkpt lat="52.9560971507" lon="1.0183811192"><ele>6</ele><time>2010-09-19T13:20:52Z</time></trkpt>
<trkpt lat="52.9560542353" lon="1.0182523732"><ele>6</ele><time>2010-09-19T13:21:10Z</time></trkpt>
<trkpt lat="52.9560756930" lon="1.0182309155"><ele>6</ele><time>2010-09-19T13:21:14Z</time></trkpt>
<trkpt lat="52.9561186083" lon="1.0181450849"><ele>6</ele><time>2010-09-19T13:21:37Z</time></trkpt>
<trkpt lat="52.9561186083" lon="1.0182094579"><ele>3</ele><time>2010-09-19T13:34:41Z</time></trkpt>
<trkpt lat="52.9561829814" lon="1.0181665425"><ele>3</ele><time>2010-09-19T13:35:15Z</time></trkpt>
<trkpt lat="52.9561186083" lon="1.0181880002"><ele>3</ele><time>2010-09-19T13:35:27Z</time></trkpt>
<trkpt lat="52.9561400660" lon="1.0181880002"><ele>3</ele><time>2010-09-19T13:35:54Z</time></trkpt>
<trkpt lat="52.9561400660" lon="1.0181880002"><ele>2</ele><time>2010-09-19T13:37:25Z</time></trkpt>
<trkpt lat="52.9560971507" lon="1.0181450849"><ele>2</ele><time>2010-09-19T13:38:02Z</time></trkpt>
<trkpt lat="52.9560756930" lon="1.0179734235"><ele>2</ele><time>2010-09-19T13:38:16Z</time></trkpt>
<trkpt lat="52.9561615237" lon="1.0175013547"><ele>2</ele><time>2010-09-19T13:38:47Z</time></trkpt>
<trkpt lat="52.9560542353" lon="1.0170292859"><ele>2</ele><time>2010-09-19T13:39:12Z</time></trkpt>
<trkpt lat="52.9557538279" lon="1.0162568097"><ele>2</ele><time>2010-09-19T13:39:56Z</time></trkpt>
<trkpt lat="52.9555392512" lon="1.0158920293"><ele>1</ele><time>2010-09-19T13:40:21Z</time></trkpt>
<trkpt lat="52.9553675898" lon="1.0153770452"><ele>1</ele><time>2010-09-19T13:40:52Z</time></trkpt>
<trkpt lat="52.9554319628" lon="1.0150551801"><ele>2</ele><time>2010-09-19T13:41:09Z</time></trkpt>
<trkpt lat="52.9554319628" lon="1.0149478917"><ele>2</ele><time>2010-09-19T13:41:15Z</time></trkpt>
<trkpt lat="52.9554534205" lon="1.0148620610"><ele>2</ele><time>2010-09-19T13:41:20Z</time></trkpt>
<trkpt lat="52.9556465396" lon="1.0145831113"><ele>2</ele><time>2010-09-19T13:41:40Z</time></trkpt>
<trkpt lat="52.9557109126" lon="1.0140681272"><ele>3</ele><time>2010-09-19T13:42:06Z</time></trkpt>
<trkpt lat="52.9557538279" lon="1.0137033467"><ele>3</ele><time>2010-09-19T13:42:26Z</time></trkpt>
<trkpt lat="52.9557109126" lon="1.0127592092"><ele>3</ele><time>2010-09-19T13:43:14Z</time></trkpt>
<trkpt lat="52.9554963358" lon="1.0119223599"><ele>3</ele><time>2010-09-19T13:43:57Z</time></trkpt>
<trkpt lat="52.9552388438" lon="1.0115361218"><ele>2</ele><time>2010-09-19T13:44:25Z</time></trkpt>
<trkpt lat="52.9550028094" lon="1.0112142568"><ele>2</ele><time>2010-09-19T13:44:50Z</time></trkpt>
<trkpt lat="52.9547882327" lon="1.0107636456"><ele>2</ele><time>2010-09-19T13:45:18Z</time></trkpt>
<trkpt lat="52.9547882327" lon="1.0101413732"><ele>1</ele><time>2010-09-19T13:45:46Z</time></trkpt>
<trkpt lat="52.9550242671" lon="1.0097980504"><ele>1</ele><time>2010-09-19T13:46:08Z</time></trkpt>
<trkpt lat="52.9552603015" lon="1.0095191007"><ele>1</ele><time>2010-09-19T13:46:31Z</time></trkpt>
<trkpt lat="52.9554534205" lon="1.0089826589"><ele>1</ele><time>2010-09-19T13:47:01Z</time></trkpt>
<trkpt lat="52.9554534205" lon="1.0087895398"><ele>1</ele><time>2010-09-19T13:47:11Z</time></trkpt>
<trkpt lat="52.9554319628" lon="1.0086822514"><ele>1</ele><time>2010-09-19T13:47:16Z</time></trkpt>
<trkpt lat="52.9554105052" lon="1.0079097752"><ele>1</ele><time>2010-09-19T13:47:49Z</time></trkpt>
<trkpt lat="52.9554748782" lon="1.0069441800"><ele>1</ele><time>2010-09-19T13:48:35Z</time></trkpt>
<trkpt lat="52.9555821665" lon="1.0060858731"><ele>1</ele><time>2010-09-19T13:49:17Z</time></trkpt>
<trkpt lat="52.9556465396" lon="1.0056996350"><ele>2</ele><time>2010-09-19T13:49:37Z</time></trkpt>
<trkpt lat="52.9557967433" lon="1.0050773625"><ele>1</ele><time>2010-09-19T13:50:10Z</time></trkpt>
<trkpt lat="52.9560113200" lon="1.0041117673"><ele>1</ele><time>2010-09-19T13:50:57Z</time></trkpt>
<trkpt lat="52.9561186083" lon="1.0031247144"><ele>0</ele><time>2010-09-19T13:51:46Z</time></trkpt>
<trkpt lat="52.9560971507" lon="1.0022234921"><ele>1</ele><time>2010-09-19T13:52:30Z</time></trkpt>
<trkpt lat="52.9560542353" lon="1.0013222699"><ele>0</ele><time>2010-09-19T13:53:15Z</time></trkpt>
<trkpt lat="52.9559898623" lon="1.0009574895"><ele>0</ele><time>2010-09-19T13:53:36Z</time></trkpt>
<trkpt lat="52.9558182009" lon="1.0002923016"><ele>0</ele><time>2010-09-19T13:54:11Z</time></trkpt>
<trkpt lat="52.9557967433" lon="1.0002279286"><ele>0</ele><time>2010-09-19T13:54:16Z</time></trkpt>
<trkpt lat="52.9554963358" lon="1.0003352170"><ele>1</ele><time>2010-09-19T13:54:41Z</time></trkpt>
<trkpt lat="52.9551744708" lon="1.0004854207"><ele>3</ele><time>2010-09-19T13:55:11Z</time></trkpt>
<trkpt lat="52.9548311480" lon="1.0006570821"><ele>7</ele><time>2010-09-19T13:55:45Z</time></trkpt>
<trkpt lat="52.9543376216" lon="1.0009360318"><ele>6</ele><time>2010-09-19T13:56:27Z</time></trkpt>
<trkpt lat="52.9539728411" lon="1.0011720662"><ele>6</ele><time>2010-09-19T13:57:04Z</time></trkpt>
<trkpt lat="52.9536509760" lon="1.0011291509"><ele>11</ele><time>2010-09-19T13:57:29Z</time></trkpt>
<trkpt lat="52.9532432803" lon="1.0012149815"><ele>13</ele><time>2010-09-19T13:58:09Z</time></trkpt>
<trkpt lat="52.9532218226" lon="1.0012364392"><ele>14</ele><time>2010-09-19T13:58:27Z</time></trkpt>
<trkpt lat="52.9532003649" lon="1.0012364392"><ele>14</ele><time>2010-09-19T13:58:30Z</time></trkpt>
<trkpt lat="52.9531359919" lon="1.0011506085"><ele>14</ele><time>2010-09-19T13:58:35Z</time></trkpt>
<trkpt lat="52.9530716189" lon="1.0007643704"><ele>14</ele><time>2010-09-19T13:58:55Z</time></trkpt>
<trkpt lat="52.9529857882" lon="1.0003781323"><ele>12</ele><time>2010-09-19T13:59:19Z</time></trkpt>
<trkpt lat="52.9527926692" lon="1.0001635556"><ele>13</ele><time>2010-09-19T13:59:39Z</time></trkpt>
<trkpt lat="52.9524064311" lon="1.0000562673"><ele>15</ele><time>2010-09-19T14:00:09Z</time></trkpt>
<trkpt lat="52.9519129046" lon="1.0002708440"><ele>13</ele><time>2010-09-19T14:00:53Z</time></trkpt>
<trkpt lat="52.9515266665" lon="1.0011291509"><ele>14</ele><time>2010-09-19T14:01:46Z</time></trkpt>
<trkpt lat="52.9514622935" lon="1.0014724736"><ele>15</ele><time>2010-09-19T14:02:04Z</time></trkpt>
<trkpt lat="52.9511618861" lon="1.0014724736"><ele>13</ele><time>2010-09-19T14:02:29Z</time></trkpt>
<trkpt lat="52.9505825289" lon="1.0014510159"><ele>12</ele><time>2010-09-19T14:03:15Z</time></trkpt>
<trkpt lat="52.9499602564" lon="1.0014295583"><ele>14</ele><time>2010-09-19T14:04:05Z</time></trkpt>
<trkpt lat="52.9494452723" lon="1.0016441350"><ele>15</ele><time>2010-09-19T14:04:49Z</time></trkpt>
<trkpt lat="52.9491019496" lon="1.0018801694"><ele>14</ele><time>2010-09-19T14:05:17Z</time></trkpt>
<trkpt lat="52.9485011347" lon="1.0022234921"><ele>15</ele><time>2010-09-19T14:06:05Z</time></trkpt>
<trkpt lat="52.9481363543" lon="1.0025453572"><ele>15</ele><time>2010-09-19T14:06:41Z</time></trkpt>
<trkpt lat="52.9480076083" lon="1.0031890874"><ele>17</ele><time>2010-09-19T14:07:15Z</time></trkpt>
<trkpt lat="52.9480076083" lon="1.0032320027"><ele>17</ele><time>2010-09-19T14:07:17Z</time></trkpt>
<trkpt lat="52.9479646929" lon="1.0033392911"><ele>17</ele><time>2010-09-19T14:07:24Z</time></trkpt>
<trkpt lat="52.9481363543" lon="1.0041546826"><ele>19</ele><time>2010-09-19T14:08:05Z</time></trkpt>
<trkpt lat="52.9480934390" lon="1.0052275662"><ele>22</ele><time>2010-09-19T14:08:57Z</time></trkpt>
<trkpt lat="52.9479003199" lon="1.0057210927"><ele>23</ele><time>2010-09-19T14:09:25Z</time></trkpt>
<trkpt lat="52.9478788622" lon="1.0057640080"><ele>23</ele><time>2010-09-19T14:09:28Z</time></trkpt>
<trkpt lat="52.9480934390" lon="1.0059571271"><ele>24</ele><time>2010-09-19T14:09:49Z</time></trkpt>
<trkpt lat="52.9484796771" lon="1.0060215001"><ele>24</ele><time>2010-09-19T14:10:18Z</time></trkpt>
<trkpt lat="52.9492306956" lon="1.0061287885"><ele>23</ele><time>2010-09-19T14:11:16Z</time></trkpt>
<trkpt lat="52.9496169337" lon="1.0062360768"><ele>24</ele><time>2010-09-19T14:11:46Z</time></trkpt>
<trkpt lat="52.9496169337" lon="1.0063862805"><ele>25</ele><time>2010-09-19T14:11:53Z</time></trkpt>
<trkpt lat="52.9494452723" lon="1.0071587567"><ele>24</ele><time>2010-09-19T14:12:32Z</time></trkpt>
<trkpt lat="52.9492736109" lon="1.0079956059"><ele>24</ele><time>2010-09-19T14:13:11Z</time></trkpt>
<trkpt lat="52.9491019496" lon="1.0088968282"><ele>23</ele><time>2010-09-19T14:13:54Z</time></trkpt>
<trkpt lat="52.9488659152" lon="1.0097122197"><ele>22</ele><time>2010-09-19T14:14:34Z</time></trkpt>
<trkpt lat="52.9487586268" lon="1.0100770001"><ele>22</ele><time>2010-09-19T14:14:56Z</time></trkpt>
<trkpt lat="52.9486942538" lon="1.0102057462"><ele>22</ele><time>2010-09-19T14:15:04Z</time></trkpt>
<trkpt lat="52.9486513384" lon="1.0102272038"><ele>22</ele><time>2010-09-19T14:15:08Z</time></trkpt>
<trkpt lat="52.9482436427" lon="1.0103559499"><ele>24</ele><time>2010-09-19T14:15:44Z</time></trkpt>
<trkpt lat="52.9478144892" lon="1.0106778150"><ele>24</ele><time>2010-09-19T14:16:22Z</time></trkpt>
<trkpt lat="52.9472780474" lon="1.0111284261"><ele>27</ele><time>2010-09-19T14:17:10Z</time></trkpt>
<trkpt lat="52.9469347247" lon="1.0114717488"><ele>28</ele><time>2010-09-19T14:17:43Z</time></trkpt>
<trkpt lat="52.9462695368" lon="1.0117077832"><ele>31</ele><time>2010-09-19T14:18:39Z</time></trkpt>
<trkpt lat="52.9457760104" lon="1.0116004949"><ele>33</ele><time>2010-09-19T14:19:17Z</time></trkpt>
<trkpt lat="52.9452181109" lon="1.0115146642"><ele>37</ele><time>2010-09-19T14:20:00Z</time></trkpt>
<trkpt lat="52.9445743807" lon="1.0115575795"><ele>38</ele><time>2010-09-19T14:20:49Z</time></trkpt>
<trkpt lat="52.9440808543" lon="1.0117721562"><ele>38</ele><time>2010-09-19T14:21:28Z</time></trkpt>
<trkpt lat="52.9437589892" lon="1.0121154790"><ele>39</ele><time>2010-09-19T14:21:58Z</time></trkpt>
<trkpt lat="52.9434156664" lon="1.0123729711"><ele>39</ele><time>2010-09-19T14:22:28Z</time></trkpt>
<trkpt lat="52.9430723437" lon="1.0129952435"><ele>40</ele><time>2010-09-19T14:23:06Z</time></trkpt>
<trkpt lat="52.9429006823" lon="1.0132312779"><ele>40</ele><time>2010-09-19T14:23:23Z</time></trkpt>
<trkpt lat="52.9423856982" lon="1.0132956510"><ele>40</ele><time>2010-09-19T14:24:02Z</time></trkpt>
<trkpt lat="52.9416561373" lon="1.0132527356"><ele>41</ele><time>2010-09-19T14:24:57Z</time></trkpt>
<trkpt lat="52.9411626109" lon="1.0130596166"><ele>41</ele><time>2010-09-19T14:25:36Z</time></trkpt>
<trkpt lat="52.9409480341" lon="1.0135746007"><ele>41</ele><time>2010-09-19T14:26:06Z</time></trkpt>
<trkpt lat="52.9406476267" lon="1.0147333150"><ele>41</ele><time>2010-09-19T14:27:04Z</time></trkpt>
<trkpt lat="52.9404545077" lon="1.0154843335"><ele>40</ele><time>2010-09-19T14:27:41Z</time></trkpt>
<trkpt lat="52.9401541003" lon="1.0164928441"><ele>40</ele><time>2010-09-19T14:28:34Z</time></trkpt>
<trkpt lat="52.9401541003" lon="1.0165786748"><ele>40</ele><time>2010-09-19T14:28:46Z</time></trkpt>
<trkpt lat="52.9401541003" lon="1.0169219975"><ele>41</ele><time>2010-09-19T14:29:03Z</time></trkpt>
<trkpt lat="52.9403901347" lon="1.0172867780"><ele>41</ele><time>2010-09-19T14:29:28Z</time></trkpt>
<trkpt lat="52.9402828463" lon="1.0176730161"><ele>42</ele><time>2010-09-19T14:29:50Z</time></trkpt>
<trkpt lat="52.9400897273" lon="1.0180807118"><ele>43</ele><time>2010-09-19T14:30:15Z</time></trkpt>
<trkpt lat="52.9398322352" lon="1.0188317304"><ele>41</ele><time>2010-09-19T14:30:56Z</time></trkpt>
<trkpt lat="52.9398536929" lon="1.0195183759"><ele>39</ele><time>2010-09-19T14:31:29Z</time></trkpt>
<trkpt lat="52.9398322352" lon="1.0198831563"><ele>39</ele><time>2010-09-19T14:31:46Z</time></trkpt>
<trkpt lat="52.9395318278" lon="1.0203766828"><ele>41</ele><time>2010-09-19T14:32:20Z</time></trkpt>
<trkpt lat="52.9392314204" lon="1.0207843785"><ele>42</ele><time>2010-09-19T14:32:57Z</time></trkpt>
<trkpt lat="52.9392099627" lon="1.0208702092"><ele>42</ele><time>2010-09-19T14:33:04Z</time></trkpt>
<trkpt lat="52.9391241320" lon="1.0210633283"><ele>43</ele><time>2010-09-19T14:33:23Z</time></trkpt>
<trkpt lat="52.9390812167" lon="1.0211277013"><ele>43</ele><time>2010-09-19T14:33:48Z</time></trkpt>
<trkpt lat="52.9390597590" lon="1.0211277013"><ele>44</ele><time>2010-09-19T14:33:58Z</time></trkpt>
<trkpt lat="52.9389739283" lon="1.0211277013"><ele>45</ele><time>2010-09-19T14:34:04Z</time></trkpt>
<trkpt lat="52.9387808093" lon="1.0210847859"><ele>46</ele><time>2010-09-19T14:34:22Z</time></trkpt>
<trkpt lat="52.9386306056" lon="1.0213208203"><ele>47</ele><time>2010-09-19T14:34:45Z</time></trkpt>
<trkpt lat="52.9386091479" lon="1.0213422780"><ele>45</ele><time>2010-09-19T14:34:58Z</time></trkpt>
<trkpt lat="52.9386091479" lon="1.0213422780"><ele>46</ele><time>2010-09-19T14:35:08Z</time></trkpt>
</trkseg>
</trk>
</gpx>